Time;durP1;ratioP1;P1;durP2;ratioP2;P2;SDS_P1;SDS_P2;PMS_P1;PMS_P2;Temp;Humidity;BMP_temperature;BMP_pressure;BME280_temperature;BME280_humidity;BME280_pressure;Samples;Min_cycle;Max_cycle;Signal;HPM_P1;HPM_P2
2021/09/24 00:02:56;;;;;;;64.95;29.48;;;6.70;99.90;;;;;;21070300;28;20044;-55
2021/09/24 00:12:58;;;;;;;77.28;35.60;;;6.70;99.90;;;;;;21070908;28;20039;-51
2021/09/24 00:23:01;;;;;;;59.53;31.00;;;6.70;99.90;;;;;;21070926;28;20028;-52
2021/09/24 00:33:04;;;;;;;56.75;29.02;;;6.80;99.90;;;;;;21069753;28;20036;-52
2021/09/24 00:43:07;;;;;;;48.92;24.63;;;6.80;99.90;;;;;;21068590;28;20032;-52
2021/09/24 00:53:10;;;;;;;51.50;23.88;;;6.90;99.90;;;;;;21067553;28;20499;-55
2021/09/24 01:03:12;;;;;;;30.40;16.55;;;7.10;99.90;;;;;;21069200;28;20063;-55
2021/09/24 01:13:14;;;;;;;26.50;18.55;;;7.10;99.90;;;;;;21067932;28;20059;-50
2021/09/24 01:23:16;;;;;;;25.63;14.70;;;7.30;99.90;;;;;;21068146;28;20058;-53
2021/09/24 01:33:18;;;;;;;21.48;9.27;;;7.20;99.90;;;;;;21067869;28;20028;-53
2021/09/24 01:43:43;;;;;;;12.80;7.90;;;7.10;99.90;;;;;;21145035;27;20405;-56
2021/09/24 01:53:45;;;;;;;15.32;8.85;;;6.90;99.90;;;;;;21129795;28;20036;-53
2021/09/24 02:03:47;;;;;;;26.67;16.67;;;7.10;99.90;;;;;;21056960;28;20050;-52
2021/09/24 02:13:49;;;;;;;22.25;12.75;;;7.40;99.90;;;;;;21132841;28;20032;-54
2021/09/24 02:23:51;;;;;;;18.02;10.63;;;7.30;99.90;;;;;;21139853;28;20038;-51
2021/09/24 02:33:53;;;;;;;15.90;8.88;;;7.20;99.90;;;;;;21138925;28;20020;-50
2021/09/24 02:43:55;;;;;;;11.25;6.90;;;7.00;99.90;;;;;;21137386;28;20078;-53
2021/09/24 02:53:57;;;;;;;13.63;8.38;;;6.70;99.90;;;;;;21085349;28;20044;-51
2021/09/24 03:03:59;;;;;;;16.90;10.15;;;6.60;99.90;;;;;;21080478;28;20040;-52
2021/09/24 03:14:01;;;;;;;24.15;14.00;;;6.90;99.90;;;;;;21078067;28;20050;-52
2021/09/24 03:24:03;;;;;;;22.05;12.55;;;7.00;99.90;;;;;;21079023;28;20528;-51
2021/09/24 03:34:07;;;;;;;32.50;17.30;;;6.90;99.90;;;;;;21078226;28;20040;-54
2021/09/24 03:44:09;;;;;;;14.50;8.98;;;6.80;99.90;;;;;;21078270;28;20032;-53
2021/09/24 03:54:11;;;;;;;16.85;9.05;;;6.80;99.90;;;;;;21075130;28;20072;-51
2021/09/24 04:04:13;;;;;;;23.80;13.05;;;6.70;99.90;;;;;;21074696;28;20024;-51
2021/09/24 04:14:15;;;;;;;10.45;6.95;;;6.80;99.90;;;;;;21074070;28;20063;-54
2021/09/24 04:24:17;;;;;;;21.85;12.43;;;6.70;99.90;;;;;;21073529;28;20028;-51
2021/09/24 04:34:19;;;;;;;27.77;11.48;;;6.50;99.90;;;;;;21072704;28;20040;-52
2021/09/24 04:44:21;;;;;;;14.55;7.90;;;6.50;99.90;;;;;;21072118;28;20024;-56
2021/09/24 04:54:22;;;;;;;17.25;10.32;;;6.60;99.90;;;;;;21071228;28;20040;-50
2021/09/24 05:04:24;;;;;;;24.42;12.57;;;6.60;99.90;;;;;;21070640;28;20441;-55
2021/09/24 05:14:26;;;;;;;26.17;15.25;;;6.50;99.90;;;;;;21069801;28;20032;-51
2021/09/24 05:24:28;;;;;;;27.02;14.18;;;6.50;99.90;;;;;;21069364;28;20439;-52
2021/09/24 05:34:30;;;;;;;12.52;8.13;;;6.70;99.90;;;;;;21077070;28;20347;-51
2021/09/24 05:44:32;;;;;;;13.27;7.43;;;6.90;99.90;;;;;;21147516;28;20039;-51
2021/09/24 05:54:34;;;;;;;7.75;4.50;;;6.90;99.90;;;;;;21068015;28;20039;-57
2021/09/24 06:04:36;;;;;;;6.25;2.60;;;7.10;99.90;;;;;;21067937;28;20028;-50
2021/09/24 06:14:45;;;;;;;4.15;2.65;;;7.30;99.90;;;;;;21150756;28;20036;-52
2021/09/24 06:24:47;;;;;;;3.47;2.47;;;7.40;99.90;;;;;;21158326;28;20035;-53
2021/09/24 06:34:49;;;;;;;5.72;2.92;;;7.50;99.90;;;;;;21166600;27;20098;-51
2021/09/24 06:44:51;;;;;;;6.53;3.88;;;7.70;99.90;;;;;;21139540;28;20036;-54
2021/09/24 06:54:54;;;;;;;8.23;4.05;;;8.20;99.90;;;;;;21062707;28;20058;-52
2021/09/24 07:04:55;;;;;;;6.50;3.97;;;8.90;99.90;;;;;;21061381;28;20074;-50
2021/09/24 07:14:57;;;;;;;4.18;2.88;;;9.90;99.90;;;;;;21079953;28;20032;-51
2021/09/24 07:24:59;;;;;;;3.72;3.05;;;10.70;99.90;;;;;;21078857;28;20043;-51
2021/09/24 07:35:01;;;;;;;5.28;3.72;;;11.70;99.90;;;;;;21077573;28;20048;-51
2021/09/24 07:45:04;;;;;;;8.30;5.45;;;13.00;99.90;;;;;;21076891;28;20039;-51
2021/09/24 07:55:06;;;;;;;8.05;4.35;;;14.20;99.90;;;;;;21075755;28;20394;-51
2021/09/24 08:05:10;;;;;;;5.97;4.70;;;15.10;99.90;;;;;;21075020;28;20032;-50
2021/09/24 08:15:11;;;;;;;7.32;4.45;;;15.70;99.90;;;;;;21056298;28;20040;-51
2021/09/24 08:25:17;;;;;;;5.82;4.32;;;16.10;99.90;;;;;;21075209;28;20027;-51
2021/09/24 08:35:21;;;;;;;6.18;4.55;;;16.70;99.90;;;;;;21082493;27;20031;-54
2021/09/24 08:45:24;;;;;;;5.68;4.10;;;17.10;99.90;;;;;;21228358;27;20031;-50
2021/09/24 08:55:26;;;;;;;5.85;4.90;;;17.50;99.90;;;;;;21155831;28;20039;-56
2021/09/24 09:05:34;;;;;;;7.65;5.05;;;17.90;99.90;;;;;;21136047;28;20100;-50
2021/09/24 09:15:37;;;;;;;6.25;5.28;;;18.00;99.90;;;;;;21154800;28;20092;-52
2021/09/24 09:25:41;;;;;;;6.25;4.75;;;18.40;99.90;;;;;;21135601;28;20044;-53
2021/09/24 09:35:50;;;;;;;7.65;5.50;;;18.60;99.90;;;;;;21099293;28;20056;-53
2021/09/24 09:45:53;;;;;;;6.63;5.03;;;18.90;99.90;;;;;;21085511;28;20032;-50
2021/09/24 09:55:58;;;;;;;5.88;4.78;;;18.90;99.90;;;;;;21153513;28;20031;-53
2021/09/24 10:06:19;;;;;;;6.90;5.20;;;19.20;99.90;;;;;;21159488;28;20040;-52
2021/09/24 10:16:24;;;;;;;5.97;4.97;;;19.60;99.90;;;;;;21083781;28;20036;-53
2021/09/24 10:26:32;;;;;;;6.85;5.82;;;20.10;99.90;;;;;;21083567;28;20499;-50
2021/09/24 10:36:45;;;;;;;7.90;6.45;;;19.80;99.90;;;;;;21106284;28;20499;-50
2021/09/24 10:46:47;;;;;;;6.30;5.40;;;19.80;99.90;;;;;;21165611;28;20024;-52
2021/09/24 10:57:03;;;;;;;8.00;6.57;;;19.70;99.90;;;;;;21165574;28;20038;-54
2021/09/24 11:07:06;;;;;;;11.63;7.05;;;19.80;99.90;;;;;;21157975;28;20051;-51
2021/09/24 11:17:10;;;;;;;8.57;6.93;;;20.30;99.90;;;;;;21156943;28;20071;-51
2021/09/24 11:27:16;;;;;;;9.38;6.72;;;20.30;99.90;;;;;;21152154;28;20071;-53
2021/09/24 11:37:38;;;;;;;9.27;7.15;;;20.40;99.90;;;;;;21151727;28;20079;-51
2021/09/24 11:47:43;;;;;;;10.60;8.13;;;20.40;99.90;;;;;;21132513;28;20067;-55
2021/09/24 11:57:58;;;;;;;11.77;8.70;;;20.40;99.90;;;;;;21153361;28;20035;-54
2021/09/24 12:08:00;;;;;;;10.85;8.23;;;20.30;99.90;;;;;;21151041;28;20484;-51
2021/09/24 12:18:03;;;;;;;10.75;8.88;;;20.40;99.90;;;;;;21153637;28;20024;-53
2021/09/24 12:28:12;;;;;;;11.93;9.35;;;20.50;99.90;;;;;;21151912;28;20079;-53
2021/09/24 12:38:34;;;;;;;14.02;9.55;;;20.40;99.90;;;;;;21184394;27;20135;-51
2021/09/24 12:48:43;;;;;;;11.60;9.23;;;20.50;99.90;;;;;;21201308;27;20031;-53
2021/09/24 12:58:45;;;;;;;18.45;11.93;;;20.40;99.90;;;;;;21148275;28;20067;-53
2021/09/24 13:08:49;;;;;;;17.35;12.90;;;20.70;99.90;;;;;;21167355;27;20067;-59
2021/09/24 13:18:53;;;;;;;19.85;15.15;;;20.60;99.90;;;;;;21238300;27;20375;-57
2021/09/24 13:28:55;;;;;;;23.60;16.08;;;20.50;99.90;;;;;;21239102;27;20363;-59
2021/09/24 13:38:57;;;;;;;20.20;15.05;;;20.10;99.90;;;;;;21238191;27;20483;-55
2021/09/24 13:48:59;;;;;;;24.02;17.83;;;19.60;99.90;;;;;;21195637;28;20479;-54
2021/09/24 13:59:01;;;;;;;25.15;18.75;;;19.40;99.90;;;;;;21152368;28;20043;-58
2021/09/24 14:09:03;;;;;;;29.00;18.58;;;19.20;99.90;;;;;;21182876;28;20038;-55
2021/09/24 14:19:05;;;;;;;28.27;20.25;;;18.90;99.90;;;;;;21236860;28;20076;-54
2021/09/24 14:29:07;;;;;;;25.27;18.17;;;18.70;99.90;;;;;;21236739;28;20039;-54
2021/09/24 14:39:14;;;;;;;26.60;18.38;;;18.40;99.90;;;;;;21192058;28;20173;-59
2021/09/24 14:49:16;;;;;;;26.80;17.38;;;18.40;99.90;;;;;;21162330;28;20023;-53
2021/09/24 14:59:18;;;;;;;25.98;18.55;;;18.40;99.90;;;;;;21165160;28;20028;-56
2021/09/24 15:09:20;;;;;;;27.35;17.65;;;17.60;99.90;;;;;;21146436;28;20043;-59
2021/09/24 15:19:23;;;;;;;26.55;17.63;;;16.60;99.90;;;;;;21163482;28;20031;-59
2021/09/24 15:29:25;;;;;;;28.23;19.00;;;15.90;99.90;;;;;;21162734;28;20399;-55
2021/09/24 15:39:28;;;;;;;27.13;17.40;;;15.20;99.90;;;;;;21161748;28;20073;-57
2021/09/24 15:49:30;;;;;;;26.23;18.17;;;14.50;99.90;;;;;;21143959;28;20027;-57
2021/09/24 15:59:32;;;;;;;35.67;20.90;;;14.10;99.90;;;;;;21161909;28;20027;-55
2021/09/24 16:09:34;;;;;;;31.95;20.63;;;13.60;99.90;;;;;;21159782;28;20054;-54
2021/09/24 16:19:38;;;;;;;41.30;24.95;;;13.00;99.90;;;;;;21158879;28;20309;-57
2021/09/24 16:29:41;;;;;;;48.50;27.27;;;12.40;99.90;;;;;;21159586;28;20179;-58
2021/09/24 16:39:44;;;;;;;58.40;31.98;;;11.90;99.90;;;;;;21108455;28;20048;-54
2021/09/24 16:49:46;;;;;;;60.10;35.13;;;11.50;99.90;;;;;;21071855;28;20032;-52
2021/09/24 16:59:48;;;;;;;65.18;37.75;;;11.20;99.90;;;;;;21071362;28;20031;-57
2021/09/24 17:09:50;;;;;;;53.55;30.77;;;11.00;99.90;;;;;;21069756;28;20117;-52
2021/09/24 17:19:52;;;;;;;69.28;40.33;;;10.80;99.90;;;;;;21070350;28;20397;-55
2021/09/24 17:29:57;;;;;;;71.57;39.00;;;10.60;99.90;;;;;;21070295;28;20050;-56
2021/09/24 17:39:59;;;;;;;52.05;28.10;;;10.30;99.90;;;;;;21051901;28;20075;-53
2021/09/24 17:50:01;;;;;;;55.88;31.58;;;10.20;99.90;;;;;;21069697;28;20051;-53
2021/09/24 18:00:06;;;;;;;54.10;31.63;;;10.20;99.90;;;;;;21069265;28;20040;-52
2021/09/24 18:10:10;;;;;;;67.30;36.05;;;10.10;99.90;;;;;;21068905;28;20039;-56
2021/09/24 18:20:12;;;;;;;65.50;33.45;;;10.10;99.90;;;;;;21074979;28;20040;-53
2021/09/24 18:30:15;;;;;;;74.63;39.80;;;10.00;99.90;;;;;;21084369;28;20391;-53
2021/09/24 18:40:17;;;;;;;64.07;34.47;;;10.00;99.90;;;;;;21083420;28;20044;-52
2021/09/24 18:50:19;;;;;;;55.08;30.73;;;10.00;99.90;;;;;;21082549;28;20062;-52
2021/09/24 19:00:22;;;;;;;96.68;42.10;;;9.90;99.90;;;;;;21082101;28;20314;-54
2021/09/24 19:10:25;;;;;;;55.13;30.58;;;9.80;99.90;;;;;;21081486;28;20028;-55
2021/09/24 19:20:29;;;;;;;81.43;39.50;;;9.70;99.90;;;;;;21080503;28;20181;-52
2021/09/24 19:30:30;;;;;;;80.97;39.60;;;9.70;99.90;;;;;;21079049;28;20039;-56
2021/09/24 19:40:33;;;;;;;109.57;51.17;;;9.70;99.90;;;;;;21079236;28;20048;-51
2021/09/24 19:50:36;;;;;;;102.32;46.10;;;9.80;99.90;;;;;;21077717;28;20085;-51
2021/09/24 20:00:38;;;;;;;99.80;46.03;;;9.70;99.90;;;;;;21077109;28;20036;-52
2021/09/24 20:10:40;;;;;;;84.35;40.53;;;9.70;99.90;;;;;;21075857;28;20361;-52
2021/09/24 20:20:42;;;;;;;85.38;37.00;;;9.70;99.90;;;;;;21075616;28;20093;-52
2021/09/24 20:30:45;;;;;;;69.70;36.47;;;9.70;99.90;;;;;;21074826;28;20046;-54
2021/09/24 20:40:48;;;;;;;62.90;31.23;;;9.90;99.90;;;;;;21183532;27;20394;-52
2021/09/24 20:50:51;;;;;;;55.67;29.35;;;9.80;99.90;;;;;;21183335;27;20072;-52
2021/09/24 21:00:55;;;;;;;61.13;30.80;;;9.60;99.90;;;;;;21156687;28;20027;-53
2021/09/24 21:10:57;;;;;;;80.47;38.28;;;9.40;99.90;;;;;;21156050;28;20031;-56
2021/09/24 21:20:59;;;;;;;102.55;46.67;;;9.30;99.90;;;;;;21155357;28;20038;-53
2021/09/24 21:31:01;;;;;;;100.03;44.78;;;9.20;99.90;;;;;;21154953;28;20043;-54
2021/09/24 21:41:04;;;;;;;88.70;40.58;;;9.20;99.90;;;;;;21154327;28;20066;-51
2021/09/24 21:51:05;;;;;;;90.13;39.30;;;9.10;99.90;;;;;;21150434;28;20053;-52
2021/09/24 22:01:08;;;;;;;87.43;39.05;;;9.10;99.90;;;;;;21171150;28;20031;-52
2021/09/24 22:11:11;;;;;;;96.45;42.22;;;9.10;99.90;;;;;;21170036;28;20063;-53
2021/09/24 22:21:13;;;;;;;63.72;34.15;;;9.00;99.90;;;;;;21169352;28;20047;-54
2021/09/24 22:31:15;;;;;;;86.30;39.95;;;8.90;99.90;;;;;;21168974;28;20462;-51
2021/09/24 22:41:17;;;;;;;35.58;21.52;;;8.90;99.90;;;;;;21168037;28;20101;-52
2021/09/24 22:51:18;;;;;;;35.60;20.65;;;8.90;99.90;;;;;;21167410;28;20081;-52
2021/09/24 23:01:20;;;;;;;40.25;21.85;;;8.80;99.90;;;;;;21148298;28;20031;-51
2021/09/24 23:11:22;;;;;;;36.80;19.48;;;8.60;99.90;;;;;;21164819;28;20054;-55
2021/09/24 23:21:24;;;;;;;42.03;24.88;;;8.50;99.90;;;;;;21164772;28;20042;-51
2021/09/24 23:31:26;;;;;;;51.90;28.45;;;8.60;99.90;;;;;;21164862;28;20179;-53
2021/09/24 23:41:36;;;;;;;55.53;28.43;;;8.60;99.90;;;;;;21155817;28;20048;-54
2021/09/24 23:51:38;;;;;;;74.00;33.30;;;8.50;99.90;;;;;;21161989;28;20027;-51
